createdAt,value
2017-10-29T00:00:33.823Z,1007.87
2017-10-29T00:01:33.811Z,1007.77
2017-10-29T00:02:33.804Z,1007.81
2017-10-29T00:03:33.794Z,1007.78
2017-10-29T00:04:33.786Z,1007.75
2017-10-29T00:05:33.777Z,1007.73
2017-10-29T00:06:33.769Z,1007.71
2017-10-29T00:07:33.759Z,1007.57
2017-10-29T00:08:33.751Z,1007.49
2017-10-29T00:09:33.742Z,1007.43
2017-10-29T00:10:33.733Z,1007.35
2017-10-29T00:11:33.725Z,1007.36
2017-10-29T00:12:33.715Z,1007.34
2017-10-29T00:13:33.708Z,1007.31
2017-10-29T00:14:33.702Z,1007.22
2017-10-29T00:15:33.692Z,1007.25
2017-10-29T00:16:33.685Z,1007.35
2017-10-29T00:17:33.673Z,1007.25
2017-10-29T00:18:33.665Z,1007.26
2017-10-29T00:19:33.656Z,1007.16
2017-10-29T00:20:33.648Z,1007.04
2017-10-29T00:21:33.639Z,1006.94
2017-10-29T00:22:33.631Z,1006.86
2017-10-29T00:23:33.621Z,1006.93
2017-10-29T00:24:33.613Z,1006.89
2017-10-29T00:25:33.604Z,1006.7
2017-10-29T00:26:33.596Z,1006.59
2017-10-29T00:27:33.588Z,1006.54
2017-10-29T00:28:33.579Z,1006.5
2017-10-29T00:29:33.570Z,1006.4
2017-10-29T00:30:33.562Z,1006.3
2017-10-29T00:31:33.553Z,1006.41
2017-10-29T00:32:33.545Z,1006.2
2017-10-29T00:33:33.541Z,1006.18
2017-10-29T00:34:33.527Z,1006.1
2017-10-29T00:35:33.519Z,1006.08
2017-10-29T00:36:33.512Z,1005.98
2017-10-29T00:37:33.504Z,1005.94
2017-10-29T00:38:33.494Z,1005.94
2017-10-29T00:39:33.486Z,1005.86
2017-10-29T00:40:33.482Z,1005.83
2017-10-29T00:41:33.473Z,1005.84
2017-10-29T00:42:33.462Z,1005.81
2017-10-29T00:43:33.459Z,1005.81
2017-10-29T00:44:33.444Z,1005.67
2017-10-29T00:45:33.434Z,1005.74
2017-10-29T00:46:33.426Z,1005.7
2017-10-29T00:47:33.418Z,1005.57
2017-10-29T00:48:33.410Z,1005.47
2017-10-29T00:49:33.403Z,1005.56
2017-10-29T00:50:33.394Z,1005.5
2017-10-29T00:51:33.384Z,1005.4
2017-10-29T00:52:33.378Z,1005.31
2017-10-29T00:53:33.369Z,1005.28
2017-10-29T00:54:33.362Z,1005.29
2017-10-29T00:55:33.353Z,1005.22
2017-10-29T00:56:33.343Z,1005.02
2017-10-29T00:57:33.336Z,1005.2
2017-10-29T00:58:33.328Z,1005.14
2017-10-29T00:59:33.319Z,1005.04
2017-10-29T01:00:33.312Z,1004.99
2017-10-29T01:01:33.303Z,1004.91
2017-10-29T01:02:33.294Z,1004.91
2017-10-29T01:03:33.286Z,1004.76
2017-10-29T01:04:33.278Z,1004.78
2017-10-29T01:05:33.269Z,1004.71
2017-10-29T01:06:33.261Z,1004.62
2017-10-29T01:07:33.253Z,1004.67
2017-10-29T01:08:33.244Z,1004.55
2017-10-29T01:09:33.237Z,1004.53
2017-10-29T01:10:33.229Z,1004.54
2017-10-29T01:11:33.220Z,1004.45
2017-10-29T01:12:33.212Z,1004.35
2017-10-29T01:13:33.204Z,1004.29
2017-10-29T01:14:33.196Z,1004.25
2017-10-29T01:15:33.186Z,1004.25
2017-10-29T01:16:33.179Z,1004.34
2017-10-29T01:17:33.170Z,1004.13
2017-10-29T01:18:33.163Z,1004.01
2017-10-29T01:19:33.155Z,1003.89
2017-10-29T01:20:33.146Z,1003.91
2017-10-29T01:21:33.138Z,1003.88
2017-10-29T01:22:33.129Z,1003.89
2017-10-29T01:23:33.122Z,1003.75
2017-10-29T01:24:33.113Z,1003.65
2017-10-29T01:25:33.107Z,1003.69
2017-10-29T01:26:33.098Z,1003.54
2017-10-29T01:27:33.124Z,1003.54
2017-10-29T01:28:33.082Z,1003.59
2017-10-29T01:29:33.073Z,1003.62
2017-10-29T01:30:33.066Z,1003.53
2017-10-29T01:31:33.058Z,1003.57
2017-10-29T01:32:33.050Z,1003.48
2017-10-29T01:33:33.042Z,1003.48
2017-10-29T01:34:33.033Z,1003.44
2017-10-29T01:35:33.026Z,1003.4
2017-10-29T01:36:33.016Z,1003.16
2017-10-29T01:37:33.009Z,1003.26
2017-10-29T01:38:33.000Z,1003.23
2017-10-29T01:39:32.993Z,1003.07
2017-10-29T01:40:32.984Z,1003.09
2017-10-29T01:41:32.977Z,1003
2017-10-29T01:42:32.969Z,1002.89
2017-10-29T01:43:32.961Z,1003.06
2017-10-29T01:44:32.951Z,1002.92
2017-10-29T01:45:32.944Z,1002.89
2017-10-29T01:46:32.938Z,1002.75
2017-10-29T01:47:32.926Z,1002.77
2017-10-29T01:48:32.920Z,1002.69
2017-10-29T01:49:32.918Z,1002.78
2017-10-29T01:50:32.904Z,1002.65
2017-10-29T01:51:32.895Z,1002.62
2017-10-29T01:52:32.887Z,1002.64
2017-10-29T01:53:32.879Z,1002.49
2017-10-29T01:54:32.871Z,1002.51
2017-10-29T01:55:32.862Z,1002.38
2017-10-29T01:56:32.854Z,1002.45
2017-10-29T01:57:32.847Z,1002.4
2017-10-29T01:58:32.837Z,1002.3
2017-10-29T01:59:32.829Z,1002.29
2017-10-29T02:00:32.823Z,1002.26
2017-10-29T02:01:32.822Z,1002.06
2017-10-29T02:02:32.805Z,1002.04
2017-10-29T02:03:32.797Z,1002.02
2017-10-29T02:04:32.792Z,1001.73
2017-10-29T02:05:32.785Z,1001.84
2017-10-29T02:06:32.772Z,1001.84
2017-10-29T02:07:32.766Z,1001.73
2017-10-29T02:08:32.757Z,1001.69
2017-10-29T02:09:32.749Z,1001.62
2017-10-29T02:10:32.740Z,1001.57
2017-10-29T02:11:32.734Z,1001.65
2017-10-29T02:12:32.724Z,1001.57
2017-10-29T02:13:32.715Z,1001.54
2017-10-29T02:14:32.707Z,1001.37
2017-10-29T02:15:32.701Z,1001.38
2017-10-29T02:16:32.692Z,1001.27
2017-10-29T02:17:32.683Z,1001.29
2017-10-29T02:18:32.676Z,1001.26
2017-10-29T02:19:32.667Z,1001.2
2017-10-29T02:20:32.658Z,1001.14
2017-10-29T02:21:32.650Z,1001.26
2017-10-29T02:22:32.642Z,1001.09
2017-10-29T02:23:32.635Z,1001.13
2017-10-29T02:24:32.625Z,1001.16
2017-10-29T02:25:32.618Z,1001.21
2017-10-29T02:26:32.611Z,1000.97
2017-10-29T02:27:32.603Z,1001.3
2017-10-29T02:28:32.594Z,1001.16
2017-10-29T02:29:32.585Z,1001.24
2017-10-29T02:30:32.579Z,1001.16
2017-10-29T02:31:32.568Z,1001.26
2017-10-29T02:32:32.586Z,1001.36
2017-10-29T02:33:32.553Z,1001.15
2017-10-29T02:34:32.544Z,1001.28
2017-10-29T02:35:32.536Z,1001.24
2017-10-29T02:36:32.545Z,1001.23
2017-10-29T02:37:32.521Z,1001.11
2017-10-29T02:38:32.512Z,1001.09
2017-10-29T02:39:32.505Z,1001
2017-10-29T02:40:32.494Z,1001.02
2017-10-29T02:41:32.487Z,1000.88
2017-10-29T02:42:32.478Z,1001.09
2017-10-29T02:43:32.474Z,1001.14
2017-10-29T02:44:32.463Z,1001.04
2017-10-29T02:45:32.454Z,1001.24
2017-10-29T02:46:32.445Z,1001.24
2017-10-29T02:47:32.438Z,1000.98
2017-10-29T02:48:32.428Z,1001.24
2017-10-29T02:49:32.422Z,1001.01
2017-10-29T02:50:32.427Z,1000.98
2017-10-29T02:51:32.405Z,1000.92
2017-10-29T02:52:32.396Z,1001.01
2017-10-29T02:53:32.393Z,1001.21
2017-10-29T02:54:32.377Z,1001.07
2017-10-29T02:55:32.370Z,1000.88
2017-10-29T02:56:32.370Z,1001.07
2017-10-29T02:57:32.353Z,1000.99
2017-10-29T02:58:32.346Z,1000.96
2017-10-29T02:59:32.344Z,1000.98
2017-10-29T03:00:32.329Z,1000.89
2017-10-29T03:01:32.326Z,1000.62
2017-10-29T03:02:32.312Z,1000.77
2017-10-29T03:03:32.312Z,1000.77
2017-10-29T03:04:32.295Z,1000.53
2017-10-29T03:05:32.288Z,1000.68
2017-10-29T03:06:32.279Z,1000.65
2017-10-29T03:07:32.270Z,1000.66
2017-10-29T03:08:32.261Z,1000.62
2017-10-29T03:09:32.255Z,1000.7
2017-10-29T03:10:32.246Z,1000.76
2017-10-29T03:11:32.235Z,1000.76
2017-10-29T03:12:32.228Z,1000.81
2017-10-29T03:13:32.218Z,1000.83
2017-10-29T03:14:32.211Z,1000.74
2017-10-29T03:15:32.200Z,1000.98
2017-10-29T03:16:32.193Z,1000.74
2017-10-29T03:17:32.184Z,1000.7
2017-10-29T03:18:32.176Z,1000.76
2017-10-29T03:19:32.166Z,1000.77
2017-10-29T03:20:32.158Z,1000.9
2017-10-29T03:21:32.148Z,1000.61
2017-10-29T03:22:32.139Z,1000.53
2017-10-29T03:23:32.131Z,1000.57
2017-10-29T03:24:32.374Z,1000.41
2017-10-29T03:25:32.115Z,1000.77
2017-10-29T03:26:32.104Z,1000.69
2017-10-29T03:27:32.096Z,1000.75
2017-10-29T03:28:32.086Z,1000.68
2017-10-29T03:29:32.078Z,1000.65
2017-10-29T03:30:32.082Z,1000.67
2017-10-29T03:31:32.060Z,1000.55
2017-10-29T03:32:32.052Z,1000.5
2017-10-29T03:33:32.041Z,1000.64
2017-10-29T03:34:32.032Z,1000.33
2017-10-29T03:35:32.024Z,1000.31
2017-10-29T03:36:32.016Z,1000.39
2017-10-29T03:37:32.005Z,1000.41
2017-10-29T03:38:31.995Z,1000.13
2017-10-29T03:39:31.988Z,1000.38
2017-10-29T03:40:31.980Z,1000.42
2017-10-29T03:41:31.969Z,1000.36
2017-10-29T03:42:31.960Z,1000.18
2017-10-29T03:43:31.951Z,1000.18
2017-10-29T03:44:31.940Z,1000.13
2017-10-29T03:45:31.933Z,999.97
2017-10-29T03:46:31.923Z,999.88
2017-10-29T03:47:31.914Z,1000.15
2017-10-29T03:48:31.905Z,1000.21
2017-10-29T03:49:31.896Z,1000.16
2017-10-29T03:50:31.887Z,1000
2017-10-29T03:51:31.878Z,1000.07
2017-10-29T03:52:31.867Z,1000.05
2017-10-29T03:53:31.859Z,1000.42
2017-10-29T03:54:31.850Z,1000.25
2017-10-29T03:55:31.841Z,1000.06
2017-10-29T03:56:31.832Z,999.93
2017-10-29T03:57:31.822Z,1000.08
2017-10-29T03:58:31.815Z,1000.11
2017-10-29T03:59:31.807Z,1000.22
2017-10-29T04:00:31.800Z,1000.16
2017-10-29T04:01:31.786Z,1000.34
2017-10-29T04:02:31.778Z,1000.47
2017-10-29T04:03:31.772Z,1000.44
2017-10-29T04:04:31.759Z,1000.7
2017-10-29T04:05:31.750Z,1000.53
2017-10-29T04:06:31.749Z,1001.07
2017-10-29T04:07:31.731Z,1001.03
2017-10-29T04:08:31.722Z,1001.34
2017-10-29T04:09:31.713Z,1001.3
2017-10-29T04:10:31.704Z,1001.46
2017-10-29T04:11:31.694Z,1001.82
2017-10-29T04:12:31.686Z,1001.95
2017-10-29T04:13:31.677Z,1001.84
2017-10-29T04:14:31.668Z,1002.03
2017-10-29T04:15:31.658Z,1001.97
2017-10-29T04:16:31.649Z,1002.26
2017-10-29T04:17:31.639Z,1001.76
2017-10-29T04:18:31.628Z,1001.97
2017-10-29T04:19:31.618Z,1002.2
2017-10-29T04:20:31.610Z,1002.21
2017-10-29T04:21:31.600Z,1002.13
2017-10-29T04:22:31.591Z,1002.04
2017-10-29T04:23:31.587Z,1002.09
2017-10-29T04:24:31.572Z,1002.21
2017-10-29T04:25:31.561Z,1002.01
2017-10-29T04:26:31.553Z,1002.28
2017-10-29T04:27:31.542Z,1002.16
2017-10-29T04:28:31.532Z,1002.2
2017-10-29T04:29:31.521Z,1002.04
2017-10-29T04:30:31.513Z,1001.89
2017-10-29T04:31:31.502Z,1001.83
2017-10-29T04:32:31.491Z,1001.67
2017-10-29T04:33:31.481Z,1001.77
2017-10-29T04:34:31.472Z,1001.9
2017-10-29T04:35:31.462Z,1001.96
2017-10-29T04:36:31.453Z,1002
2017-10-29T04:37:31.441Z,1001.87
2017-10-29T04:38:31.432Z,1001.77
2017-10-29T04:39:31.422Z,1001.77
2017-10-29T04:40:31.414Z,1001.7
2017-10-29T04:41:31.402Z,1001.71
2017-10-29T04:42:31.397Z,1001.84
2017-10-29T04:43:31.382Z,1001.77
2017-10-29T04:44:31.372Z,1001.94
2017-10-29T04:45:31.362Z,1001.83
2017-10-29T04:46:31.349Z,1001.89
2017-10-29T04:47:31.340Z,1001.88
2017-10-29T04:48:31.336Z,1001.79
2017-10-29T04:49:31.320Z,1001.81
2017-10-29T04:50:31.309Z,1001.8
2017-10-29T04:51:31.302Z,1001.96
2017-10-29T04:52:31.289Z,1001.87
2017-10-29T04:53:31.283Z,1002.15
2017-10-29T04:54:31.267Z,1001.96
2017-10-29T04:55:31.259Z,1002.12
2017-10-29T04:56:31.249Z,1002.33
2017-10-29T04:57:31.236Z,1002.38
2017-10-29T04:58:31.227Z,1002.31
2017-10-29T04:59:31.217Z,1001.94
2017-10-29T05:00:31.207Z,1002.12
2017-10-29T05:01:31.196Z,1002.07
2017-10-29T05:02:31.186Z,1001.73
2017-10-29T05:03:31.175Z,1001.94
2017-10-29T05:04:31.166Z,1002.25
2017-10-29T05:05:31.154Z,1002.36
2017-10-29T05:06:31.145Z,1002.32
2017-10-29T05:07:31.133Z,1002.31
2017-10-29T05:08:31.123Z,1002.44
2017-10-29T05:09:31.113Z,1002.51
2017-10-29T05:10:31.104Z,1002.68
2017-10-29T05:11:31.093Z,1002.59
2017-10-29T05:12:31.080Z,1002.61
2017-10-29T05:13:31.071Z,1002.67
2017-10-29T05:14:31.060Z,1002.58
2017-10-29T05:15:31.050Z,1002.6
2017-10-29T05:16:31.038Z,1002.67
2017-10-29T05:17:31.053Z,1002.69
2017-10-29T05:18:31.018Z,1002.58
2017-10-29T05:19:31.006Z,1002.67
2017-10-29T05:20:30.996Z,1002.57
2017-10-29T05:21:30.987Z,1002.61
2017-10-29T05:22:30.976Z,1002.79
2017-10-29T05:23:30.965Z,1002.8
2017-10-29T05:24:30.954Z,1002.89
2017-10-29T05:25:30.943Z,1002.68
2017-10-29T05:26:30.932Z,1002.71
2017-10-29T05:27:30.922Z,1002.77
2017-10-29T05:28:30.910Z,1002.79
2017-10-29T05:29:30.901Z,1002.47
2017-10-29T05:30:30.890Z,1002.92
2017-10-29T05:31:30.877Z,1002.94
2017-10-29T05:32:30.868Z,1002.63
2017-10-29T05:33:30.857Z,1002.63
2017-10-29T05:34:30.846Z,1002.88
2017-10-29T05:35:30.835Z,1002.75
2017-10-29T05:36:30.825Z,1002.77
2017-10-29T05:37:30.819Z,1002.88
2017-10-29T05:38:30.801Z,1002.81
2017-10-29T05:39:30.792Z,1002.68
2017-10-29T05:40:30.782Z,1002.87
2017-10-29T05:41:30.770Z,1002.76
2017-10-29T05:42:30.760Z,1002.67
2017-10-29T05:43:30.747Z,1002.66
2017-10-29T05:44:30.738Z,1002.67
2017-10-29T05:45:30.751Z,1002.72
2017-10-29T05:46:30.716Z,1002.63
2017-10-29T05:47:30.705Z,1002.54
2017-10-29T05:48:30.694Z,1002.72
2017-10-29T05:49:30.683Z,1002.4
2017-10-29T05:50:30.671Z,1002.53
2017-10-29T05:51:30.661Z,1002.41
2017-10-29T05:52:30.649Z,1002.57
2017-10-29T05:53:30.641Z,1002.63
2017-10-29T05:54:30.629Z,1002.49
2017-10-29T05:55:30.620Z,1002.61
2017-10-29T05:56:30.608Z,1002.59
2017-10-29T05:57:30.598Z,1002.41
2017-10-29T05:58:30.586Z,1002.36
2017-10-29T05:59:30.576Z,1002.33
2017-10-29T06:00:30.814Z,1002.39
2017-10-29T06:01:30.554Z,1002.45
2017-10-29T06:02:30.544Z,1002.45
2017-10-29T06:03:30.533Z,1002.43
2017-10-29T06:04:30.522Z,1002.48
2017-10-29T06:05:30.511Z,1002.3
2017-10-29T06:06:30.502Z,1002.34
2017-10-29T06:07:30.491Z,1002.19
2017-10-29T06:08:30.479Z,1001.96
2017-10-29T06:09:30.471Z,1002.07
2017-10-29T06:10:30.463Z,1001.92
2017-10-29T06:11:30.449Z,1002.03
2017-10-29T06:12:30.440Z,1001.98
2017-10-29T06:13:30.429Z,1002.03
2017-10-29T06:14:30.418Z,1001.94
2017-10-29T06:15:30.407Z,1001.96
2017-10-29T06:16:30.397Z,1001.89
2017-10-29T06:17:30.388Z,1001.9
2017-10-29T06:18:30.381Z,1001.97
2017-10-29T06:19:30.368Z,1002.01
2017-10-29T06:20:30.358Z,1001.93
2017-10-29T06:21:30.347Z,1001.87
2017-10-29T06:22:30.337Z,1001.82
2017-10-29T06:23:30.327Z,1002.02
2017-10-29T06:24:30.317Z,1002.14
2017-10-29T06:25:30.307Z,1002.18
2017-10-29T06:26:30.297Z,1002.23
2017-10-29T06:27:30.286Z,1002.2
2017-10-29T06:28:30.276Z,1002.27
2017-10-29T06:29:30.266Z,1002.2
2017-10-29T06:30:30.256Z,1002.24
2017-10-29T06:31:30.248Z,1002.02
2017-10-29T06:32:30.235Z,1002.08
2017-10-29T06:33:30.225Z,1002.01
2017-10-29T06:34:30.216Z,1002.02
2017-10-29T06:35:30.205Z,1001.95
2017-10-29T06:36:30.193Z,1001.97
2017-10-29T06:37:30.184Z,1001.99
2017-10-29T06:38:30.174Z,1002.15
2017-10-29T06:39:30.165Z,1001.8
2017-10-29T06:40:30.153Z,1001.84
2017-10-29T06:41:30.144Z,1001.86
2017-10-29T06:42:30.133Z,1001.79
2017-10-29T06:43:30.123Z,1001.89
2017-10-29T06:44:30.113Z,1002.06
2017-10-29T06:45:30.102Z,1001.88
2017-10-29T06:46:30.093Z,1002.16
2017-10-29T06:47:30.084Z,1002.28
2017-10-29T06:48:30.072Z,1002.42
2017-10-29T06:49:30.063Z,1002.32
2017-10-29T06:50:30.052Z,1002.48
2017-10-29T06:51:30.042Z,1002.6
2017-10-29T06:52:30.032Z,1002.31
2017-10-29T06:53:30.023Z,1002.58
2017-10-29T06:54:30.010Z,1002.6
2017-10-29T06:55:30.001Z,1002.5
2017-10-29T06:56:29.992Z,1002.81
2017-10-29T06:57:29.982Z,1002.79
2017-10-29T06:58:29.971Z,1002.83
2017-10-29T06:59:29.965Z,1002.7
2017-10-29T07:00:29.950Z,1002.89
2017-10-29T07:01:29.940Z,1002.86
2017-10-29T07:02:29.930Z,1002.94
2017-10-29T07:03:29.919Z,1003.08
2017-10-29T07:04:29.909Z,1003
2017-10-29T07:05:29.899Z,1003.35
2017-10-29T07:06:29.888Z,1003.12
2017-10-29T07:07:29.878Z,1003.1
2017-10-29T07:08:29.868Z,1003
2017-10-29T07:09:29.857Z,1003.19
2017-10-29T07:10:29.856Z,1003.19
2017-10-29T07:11:29.838Z,1003.21
2017-10-29T07:12:29.828Z,1003.12
2017-10-29T07:13:29.821Z,1003.15
2017-10-29T07:14:29.808Z,1003.1
2017-10-29T07:15:29.797Z,1002.92
2017-10-29T07:16:29.786Z,1003.02
2017-10-29T07:17:29.777Z,1003.01
2017-10-29T07:18:29.766Z,1003.08
2017-10-29T07:19:29.756Z,1003.18
2017-10-29T07:20:29.748Z,1003.38
2017-10-29T07:21:29.735Z,1003.17
2017-10-29T07:22:29.725Z,1003.16
2017-10-29T07:23:29.724Z,1003.24
2017-10-29T07:24:29.705Z,1002.98
2017-10-29T07:25:29.696Z,1003.12
2017-10-29T07:26:29.688Z,1003
2017-10-29T07:27:29.677Z,1003.19
2017-10-29T07:28:29.670Z,1003.16
2017-10-29T07:29:29.656Z,1003.1
2017-10-29T07:30:29.647Z,1003.19
2017-10-29T07:31:29.636Z,1003.11
2017-10-29T07:32:29.627Z,1002.96
2017-10-29T07:33:29.616Z,1002.89
2017-10-29T07:34:29.610Z,1002.71
2017-10-29T07:35:29.598Z,1002.67
2017-10-29T07:36:29.588Z,1002.79
2017-10-29T07:37:29.578Z,1002.68
2017-10-29T07:38:29.575Z,1002.58
2017-10-29T07:39:29.558Z,1002.74
2017-10-29T07:40:29.550Z,1002.79
2017-10-29T07:41:29.539Z,1002.72
2017-10-29T07:42:29.530Z,1002.81
2017-10-29T07:43:29.518Z,1002.76
2017-10-29T07:44:29.537Z,1002.63
2017-10-29T07:45:29.501Z,1002.5
2017-10-29T07:46:29.491Z,1002.62
2017-10-29T07:47:29.483Z,1002.56
2017-10-29T07:48:29.472Z,1002.72
2017-10-29T07:49:29.463Z,1002.65
2017-10-29T07:50:29.452Z,1002.39
2017-10-29T07:51:29.442Z,1002.48
2017-10-29T07:52:29.434Z,1002.31
2017-10-29T07:53:29.424Z,1002.34
2017-10-29T07:54:29.414Z,1002.81
2017-10-29T07:55:29.406Z,1002.68
2017-10-29T07:56:29.395Z,1002.84
2017-10-29T07:57:29.385Z,1002.59
2017-10-29T07:58:29.376Z,1002.55
2017-10-29T07:59:29.366Z,1002.44
2017-10-29T08:00:29.357Z,1002.69
2017-10-29T08:01:29.347Z,1002.87
2017-10-29T08:02:29.338Z,1003.15
2017-10-29T08:03:29.329Z,1003.07
2017-10-29T08:04:29.318Z,1003.08
2017-10-29T08:05:29.309Z,1003.19
2017-10-29T08:06:29.303Z,1003.4
2017-10-29T08:07:29.290Z,1003.53
2017-10-29T08:08:29.280Z,1003.6
2017-10-29T08:09:29.271Z,1003.51
2017-10-29T08:10:29.263Z,1003.64
2017-10-29T08:11:29.252Z,1003.65
2017-10-29T08:12:29.243Z,1003.47
2017-10-29T08:13:29.234Z,1003.8
2017-10-29T08:14:29.224Z,1003.97
2017-10-29T08:15:29.214Z,1004.09
2017-10-29T08:16:29.205Z,1003.94
2017-10-29T08:17:29.195Z,1004.02
2017-10-29T08:18:29.185Z,1004.05
2017-10-29T08:19:29.177Z,1004.15
2017-10-29T08:20:29.166Z,1004.11
2017-10-29T08:21:29.158Z,1004.42
2017-10-29T08:22:29.146Z,1004.14
2017-10-29T08:23:29.138Z,1004.27
2017-10-29T08:24:29.130Z,1004.18
2017-10-29T08:25:29.118Z,1004.27
2017-10-29T08:26:29.107Z,1004.35
2017-10-29T08:27:29.098Z,1004.3
2017-10-29T08:28:29.088Z,1004.39
2017-10-29T08:29:29.077Z,1004.61
2017-10-29T08:30:29.069Z,1004.42
2017-10-29T08:31:29.059Z,1004.63
2017-10-29T08:32:29.049Z,1004.55
2017-10-29T08:33:29.037Z,1004.8
2017-10-29T08:34:29.028Z,1004.79
2017-10-29T08:35:29.018Z,1004.8
2017-10-29T08:36:29.009Z,1004.94
2017-10-29T08:37:29.001Z,1005.06
2017-10-29T08:38:28.989Z,1005.05
2017-10-29T08:39:28.985Z,1005.2
2017-10-29T08:40:28.968Z,1005.45
2017-10-29T08:41:28.959Z,1005.34
2017-10-29T08:42:28.948Z,1005.63
2017-10-29T08:43:28.939Z,1005.28
2017-10-29T08:44:28.929Z,1005.59
2017-10-29T08:45:28.918Z,1005.52
2017-10-29T08:46:28.909Z,1005.83
2017-10-29T08:47:28.899Z,1005.34
2017-10-29T08:48:28.888Z,1005.35
2017-10-29T08:49:28.879Z,1005.13
2017-10-29T08:50:28.870Z,1004.95
2017-10-29T08:51:28.859Z,1005
2017-10-29T08:52:28.849Z,1004.93
2017-10-29T08:53:28.839Z,1004.91
2017-10-29T08:54:28.830Z,1005.08
2017-10-29T08:55:28.821Z,1004.93
2017-10-29T08:56:28.809Z,1005.1
2017-10-29T08:57:28.800Z,1005.25
2017-10-29T08:58:28.791Z,1005.36
2017-10-29T08:59:28.783Z,1005.59
2017-10-29T09:00:28.770Z,1005.52
2017-10-29T09:01:28.762Z,1005.71
2017-10-29T09:02:28.751Z,1005.83
2017-10-29T09:03:28.741Z,1005.83
2017-10-29T09:04:28.732Z,1005.67
2017-10-29T09:05:28.722Z,1006.32
2017-10-29T09:06:28.713Z,1006.08
2017-10-29T09:07:28.954Z,1006.08
2017-10-29T09:08:28.695Z,1006.25
2017-10-29T09:09:28.691Z,1006.57
2017-10-29T09:10:28.678Z,1006.68
2017-10-29T09:11:28.673Z,1006.8
2017-10-29T09:12:28.659Z,1006.88
2017-10-29T09:13:28.645Z,1007.2
2017-10-29T09:14:28.635Z,1007.01
2017-10-29T09:15:28.626Z,1007.67
2017-10-29T09:16:28.616Z,1007.49
2017-10-29T09:17:28.606Z,1007.51
2017-10-29T09:18:28.606Z,1007.6
2017-10-29T09:19:28.590Z,1007.7
2017-10-29T09:20:28.578Z,1007.73
2017-10-29T09:21:28.569Z,1007.77
2017-10-29T09:22:28.559Z,1007.81
2017-10-29T09:23:28.548Z,1007.82
2017-10-29T09:24:28.537Z,1007.91
2017-10-29T09:25:28.528Z,1007.68
2017-10-29T09:26:28.520Z,1007.83
2017-10-29T09:27:28.509Z,1008.04
2017-10-29T09:28:28.498Z,1007.72
2017-10-29T09:29:28.490Z,1007.64
2017-10-29T09:30:28.480Z,1007.31
2017-10-29T09:31:28.470Z,1007.19
2017-10-29T09:32:28.460Z,1007.24
2017-10-29T09:33:28.451Z,1007.16
2017-10-29T09:34:28.441Z,1007.17
2017-10-29T09:35:28.431Z,1007.1
2017-10-29T09:36:28.421Z,1007.2
2017-10-29T09:37:28.413Z,1007.14
2017-10-29T09:38:28.404Z,1007.4
2017-10-29T09:39:28.393Z,1007.59
2017-10-29T09:40:28.384Z,1007.67
2017-10-29T09:41:28.376Z,1007.72
2017-10-29T09:42:28.365Z,1007.83
2017-10-29T09:43:28.358Z,1007.85
2017-10-29T09:44:28.348Z,1007.94
2017-10-29T09:45:28.338Z,1007.92
2017-10-29T09:46:28.331Z,1008.05
2017-10-29T09:47:28.321Z,1008.12
2017-10-29T09:48:28.312Z,1007.94
2017-10-29T09:49:28.303Z,1008.03
2017-10-29T09:50:28.294Z,1008.06
2017-10-29T09:51:28.285Z,1008.11
2017-10-29T09:52:28.275Z,1007.93
2017-10-29T09:53:28.268Z,1008
2017-10-29T09:54:28.257Z,1008.26
2017-10-29T09:55:28.251Z,1008.27
2017-10-29T09:56:28.242Z,1008.25
2017-10-29T09:57:28.230Z,1008.09
2017-10-29T09:58:28.222Z,1008.1
2017-10-29T09:59:28.216Z,1008.31
2017-10-29T10:00:28.207Z,1008.03
2017-10-29T10:01:28.196Z,1008.13
2017-10-29T10:02:28.190Z,1008.22
2017-10-29T10:03:28.179Z,1008.37
2017-10-29T10:04:28.172Z,1008.81
2017-10-29T10:05:28.165Z,1008.96
2017-10-29T10:06:28.154Z,1009.18
2017-10-29T10:07:28.146Z,1009.48
2017-10-29T10:08:28.136Z,1009.92
2017-10-29T10:09:28.128Z,1010.15
2017-10-29T10:10:28.120Z,1010.57
2017-10-29T10:11:28.111Z,1010.6
2017-10-29T10:12:28.102Z,1010.68
2017-10-29T10:13:28.093Z,1010.64
2017-10-29T10:14:28.086Z,1010.53
2017-10-29T10:15:28.074Z,1010.64
2017-10-29T10:16:28.067Z,1010.75
2017-10-29T10:17:28.056Z,1010.75
2017-10-29T10:18:28.049Z,1011.06
2017-10-29T10:19:28.039Z,1011.19
2017-10-29T10:20:28.029Z,1011.31
2017-10-29T10:21:28.020Z,1011.27
2017-10-29T10:22:28.012Z,1011.03
2017-10-29T10:23:28.006Z,1010.91
2017-10-29T10:24:27.992Z,1010.98
2017-10-29T10:25:27.983Z,1010.77
2017-10-29T10:26:27.973Z,1010.66
2017-10-29T10:27:27.963Z,1010.46
2017-10-29T10:28:27.955Z,1010.77
2017-10-29T10:29:27.944Z,1010.59
2017-10-29T10:30:27.934Z,1010.72
2017-10-29T10:31:27.924Z,1010.63
2017-10-29T10:32:27.915Z,1010.32
2017-10-29T10:33:27.906Z,1010.25
2017-10-29T10:34:27.900Z,1010.1
2017-10-29T10:35:27.887Z,1010.17
2017-10-29T10:36:27.879Z,1010.18
2017-10-29T10:37:27.868Z,1010.26
2017-10-29T10:38:27.861Z,1010.38
2017-10-29T10:39:27.852Z,1010.29
2017-10-29T10:40:27.841Z,1010.21
2017-10-29T10:41:27.831Z,1010.26
2017-10-29T10:42:27.821Z,1010.17
2017-10-29T10:43:27.814Z,1010.21
2017-10-29T10:44:27.805Z,1010.29
2017-10-29T10:45:27.795Z,1010.15
2017-10-29T10:46:27.785Z,1009.97
2017-10-29T10:47:27.778Z,1009.86
2017-10-29T10:48:27.766Z,1009.88
2017-10-29T10:49:27.758Z,1009.88
2017-10-29T10:50:27.751Z,1009.78
2017-10-29T10:51:27.742Z,1009.83
2017-10-29T10:52:27.775Z,1009.74
2017-10-29T10:53:27.724Z,1009.7
2017-10-29T10:54:27.716Z,1009.72
2017-10-29T10:55:27.707Z,1009.73
2017-10-29T10:56:27.699Z,1009.91
2017-10-29T10:57:27.698Z,1009.91
2017-10-29T10:58:27.681Z,1009.92
2017-10-29T10:59:27.674Z,1010
2017-10-29T11:00:27.665Z,1009.93
2017-10-29T11:01:27.657Z,1009.94
2017-10-29T11:02:27.649Z,1009.95
2017-10-29T11:03:27.640Z,1010.06
2017-10-29T11:04:27.632Z,1009.83
2017-10-29T11:05:27.625Z,1009.98
2017-10-29T11:06:27.616Z,1010
2017-10-29T11:07:27.608Z,1010.17
2017-10-29T11:08:27.600Z,1010.25
2017-10-29T11:09:27.593Z,1010.48
2017-10-29T11:10:27.583Z,1010.44
2017-10-29T11:11:27.576Z,1010.57
2017-10-29T11:12:27.567Z,1010.69
2017-10-29T11:13:27.561Z,1010.75
2017-10-29T11:14:27.553Z,1010.82
2017-10-29T11:15:27.544Z,1010.96
2017-10-29T11:16:27.537Z,1011.06
2017-10-29T11:17:27.528Z,1011.02
2017-10-29T11:18:27.521Z,1011.07
2017-10-29T11:19:27.514Z,1011.37
2017-10-29T11:20:27.505Z,1011.61
2017-10-29T11:21:27.496Z,1011.76
2017-10-29T11:22:27.488Z,1011.72
2017-10-29T11:23:27.481Z,1012.14
2017-10-29T11:24:27.473Z,1012.27
2017-10-29T11:25:27.462Z,1012.51
2017-10-29T11:26:27.456Z,1012.51
2017-10-29T11:27:27.446Z,1012.59
2017-10-29T11:28:27.437Z,1012.73
2017-10-29T11:29:27.430Z,1013
2017-10-29T11:30:27.421Z,1013.29
2017-10-29T11:31:27.414Z,1013.51
2017-10-29T11:32:27.403Z,1013.91
2017-10-29T11:33:27.396Z,1013.91
2017-10-29T11:34:27.388Z,1014.15
2017-10-29T11:35:27.379Z,1014.4
2017-10-29T11:36:27.369Z,1014.37
2017-10-29T11:37:27.362Z,1014.39
2017-10-29T11:38:27.352Z,1014.41
2017-10-29T11:39:27.341Z,1014.51
2017-10-29T11:40:27.333Z,1014.44
2017-10-29T11:41:27.348Z,1014.48
2017-10-29T11:42:27.315Z,1014.28
2017-10-29T11:43:27.305Z,1014.13
2017-10-29T11:44:27.297Z,1014.18
2017-10-29T11:45:27.286Z,1014.2
2017-10-29T11:46:27.278Z,1014.2
2017-10-29T11:47:27.266Z,1014.21
2017-10-29T11:48:27.258Z,1014.2
2017-10-29T11:49:27.248Z,1014.18
2017-10-29T11:50:27.246Z,1014.12
2017-10-29T11:51:27.229Z,1014.06
2017-10-29T11:52:27.219Z,1014.11
2017-10-29T11:53:27.210Z,1014.16
2017-10-29T11:54:27.200Z,1014.24
2017-10-29T11:55:27.189Z,1014.22
2017-10-29T11:56:27.179Z,1014.38
2017-10-29T11:57:27.171Z,1014.42
2017-10-29T11:58:27.160Z,1014.6
2017-10-29T11:59:27.150Z,1014.54
2017-10-29T12:00:27.141Z,1014.62
2017-10-29T12:01:27.130Z,1014.65
2017-10-29T12:02:27.122Z,1014.69
2017-10-29T12:03:27.112Z,1014.83
2017-10-29T12:04:27.102Z,1014.83
2017-10-29T12:05:27.091Z,1014.85
2017-10-29T12:06:27.081Z,1014.81
2017-10-29T12:07:27.071Z,1015.01
2017-10-29T12:08:27.063Z,1015.08